Time;durP1;ratioP1;P1;durP2;ratioP2;P2;SDS_P1;SDS_P2;PMS_P1;PMS_P2;Temp;Humidity;BMP_temperature;BMP_pressure;BME280_temperature;BME280_humidity;BME280_pressure;Samples;Min_cycle;Max_cycle;Signal;HPM_P1;HPM_P2
2021/10/06 00:00:19;;;;;;;15.20;8.30;;;;;;;12.35;76.94;98382.04;113517;1215;137612;-87
2021/10/06 00:03:05;;;;;;;12.00;7.90;;;;;;;12.39;77.08;98383.38;113825;1200;25076;-86
2021/10/06 00:05:34;;;;;;;12.00;7.90;;;;;;;12.39;77.03;98385.67;112701;1214;22549;-86
2021/10/06 00:08:04;;;;;;;16.70;6.50;;;;;;;12.38;76.92;98382.00;112727;1214;138750;-87
2021/10/06 00:10:30;;;;;;;13.60;6.80;;;;;;;12.36;76.78;98372.86;113331;1215;22465;-87
2021/10/06 00:13:00;;;;;;;10.40;7.20;;;;;;;12.36;76.82;98376.47;113528;1210;138113;-87
2021/10/06 00:15:37;;;;;;;11.80;7.20;;;;;;;12.32;76.79;98387.20;113519;1214;22461;-86
2021/10/06 00:18:05;;;;;;;12.60;7.50;;;;;;;12.32;77.00;98387.19;113112;1214;22553;-86
2021/10/06 00:20:32;;;;;;;14.00;8.30;;;;;;;12.28;76.60;98382.62;112694;1214;138576;-86
2021/10/06 00:23:02;;;;;;;9.90;7.50;;;;;;;12.24;76.96;98371.94;113309;1200;22819;-87
2021/10/06 00:25:31;;;;;;;14.20;6.90;;;;;;;12.21;77.11;98363.02;113038;1214;138052;-87
2021/10/06 00:27:59;;;;;;;9.40;6.30;;;;;;;12.19;77.19;98357.85;112888;1214;22444;-86
2021/10/06 00:30:27;;;;;;;11.80;6.80;;;;;;;12.20;77.49;98352.12;113073;1214;138436;-86
2021/10/06 00:32:54;;;;;;;11.70;7.20;;;;;;;12.22;77.61;98354.88;112939;1200;24063;-86
2021/10/06 00:35:22;;;;;;;10.00;6.80;;;;;;;12.26;77.26;98359.34;112747;1215;22673;-87
2021/10/06 00:37:48;;;;;;;10.80;7.80;;;;;;;12.30;77.38;98357.74;112630;1215;138131;-86
2021/10/06 00:40:17;;;;;;;10.70;7.50;;;;;;;12.34;77.29;98369.40;113316;1214;23252;-87
2021/10/06 00:42:49;;;;;;;11.10;7.10;;;;;;;12.37;77.23;98368.39;112755;1207;139285;-86
2021/10/06 00:45:17;;;;;;;11.10;8.00;;;;;;;12.37;77.01;98367.23;113118;1214;24080;-87
2021/10/06 00:47:56;;;;;;;17.50;8.00;;;;;;;12.35;77.05;98362.92;113225;1207;22800;-87
2021/10/06 00:50:22;;;;;;;10.30;8.00;;;;;;;12.32;77.25;98359.63;112713;1214;137439;-86
2021/10/06 00:52:49;;;;;;;12.00;7.10;;;;;;;12.31;77.32;98364.80;113062;1210;22454;-87
2021/10/06 00:55:19;;;;;;;12.00;6.40;;;;;;;12.31;77.55;98362.39;112604;1209;138018;-88
2021/10/06 00:57:48;;;;;;;9.90;6.50;;;;;;;12.33;77.54;98358.15;112913;1215;22454;-87
2021/10/06 01:00:17;;;;;;;8.50;5.70;;;;;;;12.36;77.66;98359.55;112832;1214;138918;-86
2021/10/06 01:02:45;;;;;;;9.60;6.30;;;;;;;12.40;77.31;98356.08;112749;1214;22800;-86
2021/10/06 01:05:18;;;;;;;11.50;6.80;;;;;;;12.43;77.50;98355.01;113030;1210;22517;-87
2021/10/06 01:07:48;;;;;;;9.00;6.60;;;;;;;12.43;77.51;98354.25;113599;1215;137545;-87
2021/10/06 01:10:30;;;;;;;11.70;6.90;;;;;;;12.42;77.61;98363.48;113109;1214;22509;-86
2021/10/06 01:12:57;;;;;;;9.80;6.20;;;;;;;12.42;77.49;98370.20;113393;1214;137535;-86
2021/10/06 01:15:26;;;;;;;10.30;7.30;;;;;;;12.36;76.76;98375.42;113065;1200;22478;-86
2021/10/06 01:17:53;;;;;;;12.40;7.90;;;;;;;12.17;76.72;98380.55;112948;1214;22517;-86
2021/10/06 01:20:23;;;;;;;12.40;7.90;;;;;;;12.03;76.94;98376.14;112617;1214;137599;-84
2021/10/06 01:22:50;;;;;;;13.90;9.00;;;;;;;11.94;77.69;98373.20;113135;1214;22446;-86
2021/10/06 01:25:31;;;;;;;12.90;8.20;;;;;;;11.88;78.03;98378.23;114051;1207;137546;-86
2021/10/06 01:28:01;;;;;;;11.10;7.50;;;;;;;11.87;78.18;98375.16;113480;1215;22462;-87
2021/10/06 01:30:27;;;;;;;11.00;7.20;;;;;;;11.91;78.46;98375.95;112698;1214;138478;-88
2021/10/06 01:33:03;;;;;;;14.00;7.80;;;;;;;11.98;78.54;98378.98;113709;1207;25198;-85
2021/10/06 01:35:30;;;;;;;13.70;7.90;;;;;;;12.05;78.54;98373.98;113071;1214;22525;-86
2021/10/06 01:38:05;;;;;;;9.50;7.50;;;;;;;12.11;78.52;98373.93;112949;1215;137880;-88
2021/10/06 01:40:31;;;;;;;10.20;7.10;;;;;;;12.17;78.65;98376.34;112515;1214;22472;-88
2021/10/06 01:42:58;;;;;;;12.80;6.70;;;;;;;12.21;78.43;98375.29;113157;1214;138481;-86
2021/10/06 01:45:32;;;;;;;12.40;7.70;;;;;;;12.24;78.45;98382.46;113081;1214;22505;-87
2021/10/06 01:48:18;;;;;;;9.70;6.90;;;;;;;12.26;78.33;98387.91;113531;1215;24157;-87
2021/10/06 01:50:47;;;;;;;10.00;7.30;;;;;;;12.28;78.43;98394.46;112771;1214;137472;-87
2021/10/06 01:53:16;;;;;;;12.30;7.50;;;;;;;12.27;78.49;98396.92;112957;1214;22455;-87
2021/10/06 01:55:57;;;;;;;8.40;6.10;;;;;;;12.27;78.90;98400.41;112546;1213;138263;-87
2021/10/06 01:58:24;;;;;;;12.50;6.30;;;;;;;12.29;79.03;98397.05;113455;1210;22524;-87
2021/10/06 02:00:51;;;;;;;8.80;7.10;;;;;;;12.31;79.33;98400.73;113200;1214;138601;-87
2021/10/06 02:03:22;;;;;;;9.60;6.70;;;;;;;12.34;79.41;98401.24;112876;1214;24091;-87
2021/10/06 02:05:49;;;;;;;8.70;6.40;;;;;;;12.33;79.83;98400.36;112616;1214;22452;-87
2021/10/06 02:08:20;;;;;;;9.50;6.10;;;;;;;12.32;79.33;98400.69;112662;1214;137838;-86
2021/10/06 02:10:49;;;;;;;8.60;5.80;;;;;;;12.32;79.83;98407.02;113037;1214;23152;-87
2021/10/06 02:13:16;;;;;;;8.80;5.90;;;;;;;12.37;79.93;98399.74;112625;1214;138324;-87
2021/10/06 02:15:46;;;;;;;9.00;6.20;;;;;;;12.43;80.02;98398.88;112942;1207;24295;-87
2021/10/06 02:18:17;;;;;;;11.60;6.70;;;;;;;12.46;79.86;98395.08;112899;1214;22491;-87
2021/10/06 02:20:47;;;;;;;10.80;6.00;;;;;;;12.49;80.02;98398.39;112730;1214;137347;-86
2021/10/06 02:23:14;;;;;;;;;;;;;;;12.50;80.01;98398.84;112932;1214;22441;-86
2021/10/06 02:25:42;;;;;;;8.70;5.50;;;;;;;12.48;80.30;98395.48;112926;1210;124484;-86
2021/10/06 02:28:09;;;;;;;9.00;6.00;;;;;;;12.49;80.32;98386.42;112801;1214;25035;-86
2021/10/06 02:30:39;;;;;;;16.90;7.40;;;;;;;12.51;80.24;98382.02;112819;1214;138537;-84
2021/10/06 02:33:05;;;;;;;10.40;7.30;;;;;;;12.49;79.97;98373.20;113883;1210;22484;-85
2021/10/06 02:35:32;;;;;;;12.90;8.50;;;;;;;12.47;79.76;98371.70;112923;1200;23835;-84
2021/10/06 02:37:59;;;;;;;11.80;8.30;;;;;;;12.47;79.91;98371.38;112734;1214;137626;-85
2021/10/06 02:40:25;;;;;;;15.70;8.60;;;;;;;12.47;80.12;98370.73;113010;1210;22459;-85
2021/10/06 02:42:53;;;;;;;10.60;7.80;;;;;;;12.47;80.05;98369.26;112541;1214;138360;-87
2021/10/06 02:45:21;;;;;;;10.10;7.00;;;;;;;12.50;80.07;98367.80;112952;1210;22578;-86
2021/10/06 02:47:48;;;;;;;13.40;8.50;;;;;;;12.54;80.42;98368.65;112819;1214;22941;-85
2021/10/06 02:50:21;;;;;;;10.90;7.70;;;;;;;12.58;80.38;98370.01;113054;1214;137589;-85
2021/10/06 02:52:50;;;;;;;12.30;7.50;;;;;;;12.61;80.40;98373.80;112726;1214;22483;-86
2021/10/06 02:55:17;;;;;;;12.40;8.20;;;;;;;12.61;80.31;98375.48;112448;1200;138157;-86
2021/10/06 02:57:46;;;;;;;11.10;7.10;;;;;;;12.63;80.28;98373.70;112550;1210;23530;-85
2021/10/06 03:00:12;;;;;;;12.10;7.70;;;;;;;12.66;80.53;98373.67;112743;1214;22458;-86
2021/10/06 03:02:59;;;;;;;11.80;7.40;;;;;;;12.68;80.85;98368.73;113321;1214;137735;-85
2021/10/06 03:05:28;;;;;;;14.40;8.30;;;;;;;12.70;80.88;98370.38;112916;1209;24074;-86
2021/10/06 03:07:55;;;;;;;12.90;7.70;;;;;;;12.71;80.99;98365.52;113157;1209;137542;-85
2021/10/06 03:10:22;;;;;;;12.00;7.60;;;;;;;12.70;81.18;98366.34;112751;1214;25064;-85
2021/10/06 03:12:50;;;;;;;10.10;7.30;;;;;;;12.73;81.14;98370.30;113130;1214;138362;-88
2021/10/06 03:15:17;;;;;;;12.20;6.90;;;;;;;12.74;81.33;98379.70;113118;1214;25325;-85
2021/10/06 03:17:44;;;;;;;11.10;8.00;;;;;;;12.81;81.03;98383.02;112809;1210;22487;-85
2021/10/06 03:20:14;;;;;;;12.80;8.10;;;;;;;12.82;81.26;98387.09;112589;1214;137949;-88
2021/10/06 03:22:41;;;;;;;11.50;8.10;;;;;;;12.81;80.82;98399.48;112587;1215;22458;-88
2021/10/06 03:25:11;;;;;;;14.80;8.20;;;;;;;12.77;80.79;98400.77;112921;1214;138266;-87
2021/10/06 03:27:38;;;;;;;10.00;7.10;;;;;;;12.76;81.26;98395.89;112949;1203;22473;-87
2021/10/06 03:30:09;;;;;;;11.10;6.80;;;;;;;12.77;81.42;98411.75;112711;1215;22533;-86
2021/10/06 03:32:38;;;;;;;10.70;7.20;;;;;;;12.75;81.23;98413.37;113170;1214;137867;-86
2021/10/06 03:35:06;;;;;;;10.70;6.90;;;;;;;12.67;81.36;98411.17;112920;1214;24570;-86
2021/10/06 03:37:32;;;;;;;12.30;8.10;;;;;;;12.59;81.33;98409.41;112807;1209;137668;-85
2021/10/06 03:39:59;;;;;;;10.40;7.20;;;;;;;12.56;81.54;98408.88;113058;1214;24099;-85
2021/10/06 03:42:25;;;;;;;9.70;6.00;;;;;;;12.56;81.30;98409.71;113279;1214;22449;-86
2021/10/06 03:44:52;;;;;;;10.10;5.70;;;;;;;12.59;81.27;98411.94;112534;1215;138073;-85
2021/10/06 03:47:18;;;;;;;8.60;6.90;;;;;;;12.62;80.72;98414.08;113070;1214;23563;-86
2021/10/06 03:49:45;;;;;;;12.90;7.00;;;;;;;12.66;80.54;98416.67;113040;1214;137445;-86
2021/10/06 03:52:11;;;;;;;8.50;6.50;;;;;;;12.69;80.68;98415.46;112913;1210;23197;-85
2021/10/06 03:54:38;;;;;;;8.80;6.50;;;;;;;12.73;80.71;98409.69;112624;1214;137813;-86
2021/10/06 03:57:04;;;;;;;11.90;6.00;;;;;;;12.76;80.66;98412.18;113237;1200;23816;-86
2021/10/06 03:59:30;;;;;;;8.00;6.50;;;;;;;12.79;80.48;98414.60;112712;1215;22591;-86
2021/10/06 04:01:57;;;;;;;8.20;6.70;;;;;;;12.81;80.29;98413.64;112599;1209;137935;-85
2021/10/06 04:04:23;;;;;;;13.90;8.10;;;;;;;12.84;80.48;98413.61;112629;1210;22454;-85
2021/10/06 04:06:50;;;;;;;12.40;7.60;;;;;;;12.84;80.07;98414.27;112757;1209;137735;-85
2021/10/06 04:09:16;;;;;;;11.60;6.80;;;;;;;12.83;79.62;98414.96;113059;1214;22469;-86
2021/10/06 04:11:43;;;;;;;9.80;6.80;;;;;;;12.83;79.43;98420.77;114746;1214;22486;-86
2021/10/06 04:14:10;;;;;;;12.30;7.50;;;;;;;12.81;79.41;98428.62;112562;1214;138210;-86
2021/10/06 04:16:36;;;;;;;12.00;7.40;;;;;;;12.77;79.57;98434.92;113869;1214;22451;-86
2021/10/06 04:19:03;;;;;;;10.60;7.50;;;;;;;12.74;79.91;98436.04;113100;1209;137752;-85
2021/10/06 04:21:29;;;;;;;10.40;7.50;;;;;;;12.72;80.21;98434.55;113947;1212;23795;-86
2021/10/06 04:23:56;;;;;;;10.20;7.40;;;;;;;12.70;80.30;98436.33;113536;1214;22502;-86
2021/10/06 04:26:22;;;;;;;12.80;7.30;;;;;;;12.70;80.22;98438.95;112957;1214;138249;-86
2021/10/06 04:28:49;;;;;;;8.50;6.30;;;;;;;12.71;79.89;98437.06;112543;1209;25208;-86
2021/10/06 04:31:19;;;;;;;10.40;7.00;;;;;;;12.72;80.04;98440.73;113293;1210;138435;-86
2021/10/06 04:33:48;;;;;;;10.90;6.90;;;;;;;12.73;79.83;98434.84;113221;1214;22799;-86
2021/10/06 04:36:15;;;;;;;11.80;8.00;;;;;;;12.72;79.72;98438.88;113077;1214;22467;-86
2021/10/06 04:38:43;;;;;;;11.70;8.50;;;;;;;12.70;79.87;98441.96;112943;1200;138094;-86
2021/10/06 04:41:10;;;;;;;8.30;6.80;;;;;;;12.70;79.96;98448.58;112702;1214;22501;-85
2021/10/06 04:43:37;;;;;;;10.50;6.80;;;;;;;12.70;80.03;98446.73;112642;1209;138031;-86
2021/10/06 04:46:03;;;;;;;10.80;7.00;;;;;;;12.70;80.37;98449.52;112834;1207;23297;-86
2021/10/06 04:48:30;;;;;;;11.20;7.50;;;;;;;12.70;80.28;98452.62;113473;1209;25174;-86
2021/10/06 04:50:56;;;;;;;13.50;7.30;;;;;;;12.70;80.27;98452.88;113158;1214;137445;-86
2021/10/06 04:53:23;;;;;;;14.10;7.50;;;;;;;12.68;80.29;98458.61;112985;1209;22451;-86
2021/10/06 04:55:49;;;;;;;9.70;6.80;;;;;;;12.68;80.02;98462.33;112852;1214;138375;-86
2021/10/06 04:58:16;;;;;;;14.30;7.80;;;;;;;12.68;79.87;98454.52;112805;1209;23037;-86
2021/10/06 05:00:42;;;;;;;10.50;6.60;;;;;;;12.68;79.82;98455.88;112547;1209;137694;-85
2021/10/06 05:03:14;;;;;;;11.60;7.60;;;;;;;12.67;79.89;98465.22;112736;1214;25165;-86
2021/10/06 05:05:41;;;;;;;11.80;7.00;;;;;;;12.67;79.99;98465.81;112728;1209;22565;-86
2021/10/06 05:08:09;;;;;;;10.80;7.40;;;;;;;12.65;80.06;98468.91;113003;1210;138262;-86
2021/10/06 05:10:36;;;;;;;10.20;6.70;;;;;;;12.61;79.56;98468.39;112999;1214;22882;-86
2021/10/06 05:13:03;;;;;;;9.70;7.40;;;;;;;12.58;79.99;98470.54;112566;1209;138585;-88
2021/10/06 05:15:29;;;;;;;10.10;7.10;;;;;;;12.56;79.86;98461.83;113903;1214;22572;-85
2021/10/06 05:18:10;;;;;;;11.60;7.60;;;;;;;12.55;80.10;98465.80;113031;1209;22995;-86
2021/10/06 05:20:37;;;;;;;11.80;7.10;;;;;;;12.54;80.36;98471.26;114132;1209;137638;-85
2021/10/06 05:23:03;;;;;;;10.20;6.40;;;;;;;12.54;80.44;98472.67;113316;1214;22441;-86
2021/10/06 05:25:30;;;;;;;12.40;6.70;;;;;;;12.55;80.24;98479.67;112574;1214;138243;-86
2021/10/06 05:27:56;;;;;;;14.30;7.80;;;;;;;12.56;80.27;98481.27;112707;1215;24408;-85
2021/10/06 05:30:37;;;;;;;12.10;7.80;;;;;;;12.56;80.50;98485.75;113970;1203;137695;-85
2021/10/06 05:33:04;;;;;;;11.50;7.50;;;;;;;12.55;80.61;98486.99;114675;1214;22518;-86
2021/10/06 05:35:30;;;;;;;11.10;7.00;;;;;;;12.57;80.89;98485.88;113300;1214;22205;-86
2021/10/06 05:37:57;;;;;;;9.30;7.00;;;;;;;12.60;81.24;98484.77;114043;1214;138340;-85
2021/10/06 05:40:23;;;;;;;15.00;8.40;;;;;;;12.63;81.10;98487.30;114199;1199;22469;-85
2021/10/06 05:42:50;;;;;;;13.60;8.90;;;;;;;12.63;81.04;98492.45;114274;1214;137860;-85
2021/10/06 05:45:16;;;;;;;13.00;7.90;;;;;;;12.64;81.26;98492.13;113478;1215;22482;-85
2021/10/06 05:47:43;;;;;;;13.50;7.50;;;;;;;12.65;81.02;98498.04;112493;1215;24150;-85
2021/10/06 05:50:10;;;;;;;9.80;6.50;;;;;;;12.63;81.26;98502.12;112734;1208;138790;-84
2021/10/06 05:52:37;;;;;;;11.90;7.50;;;;;;;12.62;81.39;98501.11;113485;1214;22566;-84
2021/10/06 05:55:05;;;;;;;8.10;7.20;;;;;;;12.65;81.91;98510.98;112649;1214;138612;-84
2021/10/06 05:57:32;;;;;;;10.90;7.90;;;;;;;12.70;82.40;98513.39;112924;1215;25260;-84
2021/10/06 05:59:58;;;;;;;13.20;7.90;;;;;;;12.75;82.31;98516.94;113423;1208;22469;-84
2021/10/06 06:02:25;;;;;;;11.90;8.00;;;;;;;12.79;82.30;98520.20;112775;1210;138406;-84
2021/10/06 06:05:07;;;;;;;11.20;7.20;;;;;;;12.78;82.19;98527.90;112941;1214;22480;-84
2021/10/06 06:07:33;;;;;;;11.00;7.50;;;;;;;12.79;82.11;98537.58;113796;1214;138260;-84
2021/10/06 06:10:19;;;;;;;10.90;7.80;;;;;;;12.82;82.25;98538.48;114177;1200;22490;-84
2021/10/06 06:13:24;;;;;;;15.00;8.90;;;;;;;12.87;82.43;98539.36;113190;1212;137818;-83
2021/10/06 06:15:52;;;;;;;15.90;7.80;;;;;;;12.88;82.33;98536.86;112999;1214;22478;-84
2021/10/06 06:18:20;;;;;;;11.90;6.70;;;;;;;12.90;82.43;98544.03;113929;1214;22889;-84
2021/10/06 06:20:47;;;;;;;7.80;7.10;;;;;;;12.92;82.31;98545.38;113225;1200;138416;-84
2021/10/06 06:23:14;;;;;;;11.40;8.80;;;;;;;12.94;82.39;98542.64;113232;1212;22273;-84
2021/10/06 06:25:41;;;;;;;11.90;8.50;;;;;;;12.90;82.31;98547.42;113485;1215;137655;-84
2021/10/06 06:28:07;;;;;;;15.00;8.30;;;;;;;12.87;82.31;98552.20;113027;1209;23474;-84
2021/10/06 06:30:34;;;;;;;10.60;7.70;;;;;;;12.89;82.65;98553.31;113467;1200;139224;-83
2021/10/06 06:33:01;;;;;;;9.20;6.70;;;;;;;12.91;82.87;98548.20;113190;1214;22448;-84
2021/10/06 06:35:27;;;;;;;16.10;8.50;;;;;;;12.91;82.91;98536.34;112957;1214;138448;-83
2021/10/06 06:37:54;;;;;;;12.50;7.70;;;;;;;12.91;83.06;98536.71;113692;1214;22478;-83
2021/10/06 06:40:20;;;;;;;11.40;8.60;;;;;;;12.90;83.01;98537.41;113926;1200;137693;-84
2021/10/06 06:42:48;;;;;;;10.20;7.80;;;;;;;12.91;83.04;98540.83;113411;1214;22199;-83
2021/10/06 06:45:14;;;;;;;11.30;6.80;;;;;;;12.95;82.88;98551.64;113200;1214;22448;-83
2021/10/06 06:47:55;;;;;;;11.70;7.60;;;;;;;13.01;82.86;98557.37;113089;1214;138212;-83
2021/10/06 06:50:22;;;;;;;14.30;8.80;;;;;;;13.07;82.82;98559.23;113833;1209;23216;-83
2021/10/06 06:56:57;;;;;;;13.40;6.70;;;;;;;13.22;82.62;98560.26;112183;1214;22457;-83
2021/10/06 06:59:23;;;;;;;11.00;7.60;;;;;;;13.23;82.49;98560.86;112237;1214;22459;-83
2021/10/06 07:01:50;;;;;;;9.80;8.00;;;;;;;13.24;82.41;98568.27;112251;1208;22466;-83
2021/10/06 07:04:17;;;;;;;10.60;8.30;;;;;;;13.24;82.59;98564.59;112239;1214;25154;-83
2021/10/06 07:06:56;;;;;;;11.20;8.90;;;;;;;13.27;82.66;98566.31;112401;1214;25200;-85
2021/10/06 07:09:47;;;;;;;10.50;8.30;;;;;;;13.31;82.77;98574.29;112194;1214;25094;-83
2021/10/06 07:12:18;;;;;;;11.80;7.40;;;;;;;13.34;82.62;98577.55;112478;1208;22529;-83
2021/10/06 07:14:46;;;;;;;12.10;8.20;;;;;;;13.37;82.49;98580.04;112226;1214;22466;-83
2021/10/06 07:17:14;;;;;;;16.20;9.50;;;;;;;13.39;82.34;98578.59;112252;1214;22497;-85
2021/10/06 07:19:50;;;;;;;10.80;9.00;;;;;;;13.38;82.27;98580.88;112303;1214;22475;-85
2021/10/06 07:22:20;;;;;;;11.50;8.60;;;;;;;13.38;82.30;98578.70;112216;1209;23811;-83
2021/10/06 07:24:46;;;;;;;10.40;7.20;;;;;;;13.40;82.31;98587.25;112109;1214;22519;-83
2021/10/06 07:27:13;;;;;;;13.10;8.00;;;;;;;13.44;82.48;98595.05;112093;1214;22855;-83
2021/10/06 07:29:41;;;;;;;14.10;8.80;;;;;;;13.49;82.63;98603.13;112243;1214;22501;-84
2021/10/06 07:32:24;;;;;;;11.50;9.60;;;;;;;13.56;82.66;98605.05;112238;1209;22526;-83
2021/10/06 07:35:11;;;;;;;10.20;8.70;;;;;;;13.60;82.47;98610.39;112141;1213;23991;-83
2021/10/06 07:37:38;;;;;;;12.70;7.80;;;;;;;13.64;82.44;98616.83;112113;1200;23778;-83
2021/10/06 07:40:19;;;;;;;13.70;8.60;;;;;;;13.63;82.28;98619.39;112228;1214;25173;-83
2021/10/06 07:42:46;;;;;;;12.70;8.50;;;;;;;13.64;82.41;98621.16;112083;1210;22465;-85
2021/10/06 07:45:12;;;;;;;15.80;10.00;;;;;;;13.64;82.15;98620.93;112015;1209;22459;-85
2021/10/06 07:47:39;;;;;;;13.20;9.90;;;;;;;13.62;82.26;98619.05;111990;1214;22482;-83
2021/10/06 07:50:06;;;;;;;14.20;10.00;;;;;;;13.61;82.00;98620.86;111992;1214;24161;-83
2021/10/06 07:52:33;;;;;;;14.30;8.90;;;;;;;13.58;81.88;98624.89;112082;1209;22488;-83
2021/10/06 07:55:00;;;;;;;14.60;10.00;;;;;;;13.59;81.80;98617.55;112000;1214;24217;-84
2021/10/06 07:57:26;;;;;;;14.30;10.20;;;;;;;13.60;81.91;98624.85;111997;1214;22452;-84
2021/10/06 07:59:54;;;;;;;15.20;10.00;;;;;;;13.58;81.92;98621.66;112064;1214;22480;-83
2021/10/06 08:02:21;;;;;;;14.10;9.80;;;;;;;13.57;81.85;98630.28;112048;1209;25026;-83
2021/10/06 08:04:48;;;;;;;12.30;8.90;;;;;;;13.59;82.38;98636.88;112054;1214;22106;-83
2021/10/06 08:07:15;;;;;;;15.90;10.00;;;;;;;13.59;82.12;98632.16;112457;1214;22465;-83
2021/10/06 08:10:02;;;;;;;14.00;9.90;;;;;;;13.60;82.23;98628.13;112147;1214;24128;-83
2021/10/06 08:12:33;;;;;;;15.10;10.40;;;;;;;13.61;81.93;98636.84;112054;1214;24454;-83
2021/10/06 08:15:00;;;;;;;15.80;10.60;;;;;;;13.56;81.54;98636.58;112110;1214;22571;-83
2021/10/06 08:17:26;;;;;;;14.40;9.60;;;;;;;13.53;81.72;98634.95;112076;1214;22479;-84
2021/10/06 08:19:53;;;;;;;11.70;9.50;;;;;;;13.49;81.82;98632.85;112014;1200;22504;-83
2021/10/06 08:22:20;;;;;;;13.40;9.70;;;;;;;13.45;81.61;98637.41;112068;1200;25023;-83
2021/10/06 08:24:46;;;;;;;14.10;10.30;;;;;;;13.44;81.70;98641.45;111959;1209;23011;-83
2021/10/06 08:27:14;;;;;;;18.30;11.70;;;;;;;13.43;82.02;98638.38;112025;1214;24092;-86
2021/10/06 08:29:41;;;;;;;16.40;10.90;;;;;;;13.43;82.32;98636.94;112048;1214;22453;-84
2021/10/06 08:32:07;;;;;;;19.00;11.30;;;;;;;13.42;82.18;98630.59;112224;1207;22481;-84
2021/10/06 08:34:34;;;;;;;14.50;10.60;;;;;;;13.39;82.10;98636.30;111994;1214;22572;-83
2021/10/06 08:37:01;;;;;;;15.40;10.60;;;;;;;13.41;82.32;98646.29;112082;1214;22462;-85
2021/10/06 08:39:28;;;;;;;17.10;11.20;;;;;;;13.41;82.42;98647.23;112036;1214;25125;-82
2021/10/06 08:41:56;;;;;;;16.30;11.60;;;;;;;13.40;82.81;98653.39;112084;1214;24106;-83
2021/10/06 08:44:22;;;;;;;15.20;11.00;;;;;;;13.39;82.96;98650.91;112072;1212;24090;-83
2021/10/06 08:46:49;;;;;;;17.30;9.80;;;;;;;13.42;83.01;98649.20;111953;1214;22478;-89
2021/10/06 08:49:19;;;;;;;17.20;9.90;;;;;;;13.43;82.81;98655.61;111909;1214;22530;-85
2021/10/06 08:52:00;;;;;;;14.50;11.70;;;;;;;13.47;83.32;98656.69;112072;1207;24090;-87
2021/10/06 08:54:26;;;;;;;18.80;12.90;;;;;;;13.51;83.44;98649.87;111978;1209;22472;-82
2021/10/06 08:56:53;;;;;;;21.60;12.30;;;;;;;13.53;83.41;98650.83;112078;1214;22472;-84
2021/10/06 08:59:20;;;;;;;16.70;11.50;;;;;;;13.51;83.44;98646.42;111987;1214;22441;-84
2021/10/06 09:01:46;;;;;;;15.30;12.30;;;;;;;13.48;83.56;98655.44;112058;1214;22749;-84
2021/10/06 09:04:13;;;;;;;15.60;10.60;;;;;;;13.48;83.91;98653.95;112030;1200;22453;-84
2021/10/06 09:07:02;;;;;;;16.60;11.10;;;;;;;13.47;83.98;98655.16;112037;1214;23805;-84
2021/10/06 09:09:33;;;;;;;18.20;11.80;;;;;;;13.48;84.06;98655.77;112083;1214;22453;-84
2021/10/06 09:12:00;;;;;;;16.20;12.00;;;;;;;13.52;84.36;98656.23;112051;1214;22978;-84
2021/10/06 09:14:30;;;;;;;17.10;12.00;;;;;;;13.54;84.42;98653.20;112007;1214;25066;-84
2021/10/06 09:17:09;;;;;;;14.90;10.60;;;;;;;13.57;84.62;98656.60;112005;1208;22569;-84
2021/10/06 09:19:49;;;;;;;16.10;10.80;;;;;;;13.60;84.63;98657.46;112081;1214;24073;-84
2021/10/06 09:22:19;;;;;;;14.20;10.10;;;;;;;13.66;84.66;98661.30;111940;1214;24103;-84
2021/10/06 09:24:56;;;;;;;17.20;10.60;;;;;;;13.69;84.43;98666.30;112049;1208;22466;-84
2021/10/06 09:27:30;;;;;;;17.10;10.90;;;;;;;13.70;84.34;98669.44;112023;1214;22479;-84
2021/10/06 09:30:00;;;;;;;16.40;11.10;;;;;;;13.73;84.71;98671.75;112005;1214;22482;-84
2021/10/06 09:32:35;;;;;;;14.20;11.10;;;;;;;13.77;84.68;98675.18;112059;1214;25197;-84
2021/10/06 09:35:11;;;;;;;13.80;10.00;;;;;;;13.84;84.83;98675.19;112032;1209;22451;-84
2021/10/06 09:37:42;;;;;;;14.50;11.20;;;;;;;13.91;84.73;98673.65;112021;1214;22458;-84
2021/10/06 09:40:11;;;;;;;15.00;11.80;;;;;;;13.96;84.76;98677.58;112058;1214;24127;-84
2021/10/06 09:43:00;;;;;;;17.20;11.60;;;;;;;14.01;84.97;98669.02;112042;1214;22473;-84
2021/10/06 09:45:41;;;;;;;18.70;11.40;;;;;;;14.08;84.70;98669.39;111919;1209;22900;-84
2021/10/06 09:48:14;;;;;;;15.60;11.80;;;;;;;14.11;84.71;98663.06;112091;1215;24081;-83
2021/10/06 09:50:47;;;;;;;18.20;12.10;;;;;;;14.17;84.72;98662.72;113344;1215;25175;-84
2021/10/06 09:53:16;;;;;;;19.80;11.90;;;;;;;14.24;84.57;98660.46;112709;1214;24259;-84
2021/10/06 09:55:44;;;;;;;;;;;;;;;14.26;84.08;98658.11;112983;1209;25172;-84
2021/10/06 09:58:12;;;;;;;16.30;11.20;;;;;;;14.26;83.91;98662.17;112946;1207;22513;-84
2021/10/06 10:00:41;;;;;;;17.00;11.50;;;;;;;14.24;83.82;98664.68;112634;1214;22466;-84
2021/10/06 10:03:10;;;;;;;16.20;12.10;;;;;;;14.26;83.78;98664.11;112677;1214;25134;-84
2021/10/06 10:05:51;;;;;;;18.40;12.40;;;;;;;14.22;83.23;98663.04;113403;1203;22657;-84
2021/10/06 10:08:20;;;;;;;18.40;12.40;;;;;;;14.17;83.40;98666.45;112848;1214;25254;-84
2021/10/06 10:10:50;;;;;;;21.10;11.80;;;;;;;14.16;84.11;98668.30;112718;1208;25061;-84
2021/10/06 10:13:21;;;;;;;15.60;10.90;;;;;;;14.20;84.01;98666.95;112650;1214;22503;-84
2021/10/06 10:15:49;;;;;;;15.50;12.40;;;;;;;14.24;84.06;98666.88;112641;1200;24136;-84
2021/10/06 10:18:32;;;;;;;19.30;12.90;;;;;;;14.27;84.09;98665.52;112607;1214;24175;-84
2021/10/06 10:21:00;;;;;;;15.50;12.40;;;;;;;14.29;84.13;98662.20;112533;1213;22466;-84
2021/10/06 10:23:42;;;;;;;15.50;11.30;;;;;;;14.32;84.21;98664.14;112706;1214;25131;-83
2021/10/06 10:26:24;;;;;;;16.50;11.70;;;;;;;14.35;84.21;98673.30;112455;1208;23178;-84
2021/10/06 10:28:51;;;;;;;16.10;12.10;;;;;;;14.37;84.11;98675.94;112631;1209;22480;-84
2021/10/06 10:31:28;;;;;;;18.20;13.10;;;;;;;14.37;83.97;98675.73;112640;1214;23223;-84
2021/10/06 10:33:55;;;;;;;17.00;12.40;;;;;;;14.37;84.16;98675.52;112581;1214;22447;-86
2021/10/06 10:36:39;;;;;;;16.00;12.50;;;;;;;14.40;83.93;98675.41;112735;1213;22515;-84
2021/10/06 10:39:27;;;;;;;17.10;12.00;;;;;;;14.43;84.21;98677.25;113050;1214;24081;-84
2021/10/06 10:42:03;;;;;;;17.80;12.50;;;;;;;14.45;84.17;98678.25;112503;1214;22532;-83
2021/10/06 10:44:41;;;;;;;21.30;14.20;;;;;;;14.41;84.13;98679.64;112463;1214;25070;-83
2021/10/06 10:47:10;;;;;;;20.70;15.00;;;;;;;14.34;83.81;98684.04;112548;1208;24884;-85
2021/10/06 10:49:47;;;;;;;19.30;13.70;;;;;;;14.28;83.98;98678.36;112738;1209;24247;-84
2021/10/06 10:52:17;;;;;;;18.90;12.20;;;;;;;14.27;84.27;98679.45;112615;1215;24039;-84
2021/10/06 10:54:49;;;;;;;17.80;13.30;;;;;;;14.27;84.26;98679.02;112828;1213;25150;-84
2021/10/06 10:57:27;;;;;;;19.30;14.40;;;;;;;14.28;84.38;98674.64;112752;1209;25898;-84
2021/10/06 11:00:29;;;;;;;18.60;14.20;;;;;;;14.31;84.56;98671.26;112741;1212;22575;-84
2021/10/06 11:03:11;;;;;;;20.80;14.80;;;;;;;14.34;84.55;98668.80;112564;1214;25123;-84
2021/10/06 11:05:46;;;;;;;22.70;15.70;;;;;;;14.35;84.30;98670.95;112448;1206;25282;-84
2021/10/06 11:08:42;;;;;;;23.20;16.80;;;;;;;14.38;84.10;98676.55;112242;1214;22610;-84
2021/10/06 11:11:14;;;;;;;26.80;17.00;;;;;;;14.42;84.43;98682.61;112030;1214;25077;-84
2021/10/06 11:13:48;;;;;;;24.30;17.50;;;;;;;14.48;84.56;98685.44;112273;1215;22602;-86
2021/10/06 11:17:00;;;;;;;17.80;14.00;;;;;;;14.54;84.71;98686.80;112162;1209;25306;-86
2021/10/06 11:19:43;;;;;;;16.70;12.30;;;;;;;14.61;84.33;98691.05;111939;1214;25211;-86
2021/10/06 11:22:21;;;;;;;15.70;12.40;;;;;;;14.66;84.12;98694.13;112161;1214;25054;-86
2021/10/06 11:25:00;;;;;;;20.40;14.60;;;;;;;14.66;83.90;98689.75;112351;1214;22449;-86
2021/10/06 11:27:50;;;;;;;22.50;14.00;;;;;;;14.68;84.22;98693.14;111961;1209;23982;-86
2021/10/06 11:30:20;;;;;;;22.20;13.60;;;;;;;14.67;83.97;98687.55;112155;1214;22456;-86
2021/10/06 11:32:55;;;;;;;14.30;12.10;;;;;;;14.69;83.95;98684.22;112093;1214;25117;-86